Terminal Aerodrome Forecast
Issued by NWS

Home | Current Version | Previous Version | Text Only | Print | Product List | Glossary On
Versions: 1 2 3 4 5 6 7 8 9 10 11 12 13 14
193
FTUS42 KTBW 121137 AAA
TAFPGD
TAF AMD
KPGD 121137Z 1212/1312 VRB03KT 6SM BR SKC
      TEMPO 1212/1214 1SM BR
     FM121800 26008KT P6SM SKC
     FM130000 28005KT P6SM SKC
     FM130900 30005KT 6SM BR FEW020=

USA.gov is the U.S. government's official web portal to all federal, state and local government web resources and services.